Station: Wudinna Airport

  Atmospheric Gas Attenuation - ITU Rec 676-11   --------------- db/100km ---------------
Date Time Temp RH % AH g/m3 Dew Point Wind Direction Speed kph Gust kph Barometer mB Rainfall Since 9am 24GHz 47GHz 76GHz 122GHz 134GHz 241GHz
13 07:20 1.3 95 5.04 0.6 7 7 1027.7 0.2 12.5 24.1 31.5 81.9 64.6 218.2
13 07:10 1.3 95 5.04 0.6 11 11 1027.6 0.2 12.5 24.1 31.5 81.9 64.6 218.2
13 07:00 1.4 95 5.07 0.7 11 13 1027.6 0.2 12.5 24.1 31.6 82.1 65.0 219.4
13 06:50 1.3 95 5.04 0.6 9 9 1027.4 0.2 12.5 24.1 31.5 81.9 64.6 218.2
13 06:40 1.6 95 5.14 0.9 7 9 1027.4 0.2 12.7 24.2 31.8 82.6 65.8 222.1
13 06:30 1.1 95 4.97 0.4 7 9 1027.3 0 12.3 24.0 31.3 81.3 63.8 215.3
13 06:20 1.2 95 5 0.5 7 9 1027.2 0 12.4 24.0 31.3 81.5 64.2 216.5
13 06:10 1.1 95 4.97 0.4 9 9 1027.1 0 12.3 24.0 31.2 81.3 63.8 215.3
13 06:00 1 94 4.88 0.1 7 9 1027.2 0 12.1 23.9 30.9 80.4 62.7 211.3
13 05:50 1.2 94 4.95 0.3 9 9 1027 0 12.3 23.9 31.1 80.9 63.5 214.0
13 05:40 1.3 94 4.99 0.4 9 9 1027 0 12.3 24.0 31.2 81.3 63.9 215.7
13 05:30 1.5 95 5.11 0.8 7 9 1027.1 0 12.6 24.1 31.7 82.4 65.4 220.9
13 05:20 1.5 94 5.05 0.6 9 9 1027 0 12.5 24.0 31.4 81.7 64.6 218.0
13 05:10 1.6 95 5.14 0.9 11 11 1026.9 0 12.7 24.1 31.7 82.6 65.7 222.0
13 04:50 1.3 94 4.99 0.4 7 9 1026.9 0 12.3 24.0 31.2 81.3 63.9 215.7
13 04:40 1.1 94 4.92 0.2 6 6 1026.9 0 12.2 23.9 31.0 80.7 63.1 212.9
13 04:30 1.4 95 5.07 0.7 2 7 1027.1 0 12.5 24.1 31.5 82.1 64.9 219.3
13 04:20 0.9 94 4.85 0 0 0 1026.9 0 12.1 23.8 30.8 80.1 62.3 210.0
13 04:10 1.2 94 4.95 0.3 6 7 1026.9 0 12.3 23.9 31.1 80.9 63.5 214.0
13 04:00 1 94 4.88 0.1 6 9 1027 0 12.1 23.9 30.9 80.4 62.7 211.2
13 03:50 1.1 94 4.92 0.2 0 0 1026.9 0 12.2 23.9 31.0 80.7 63.1 212.9
13 03:40 1.2 94 4.95 0.3 0 0 1026.9 0 12.3 23.9 31.1 80.9 63.5 214.0
13 03:30 1.4 94 5.02 0.5 0 0 1027 0 12.4 24.0 31.3 81.5 64.3 216.9
13 03:20 1.3 94 4.99 0.4 0 0 1026.8 0 12.3 24.0 31.2 81.2 63.9 215.7
13 03:10 1.5 94 5.05 0.6 4 6 1026.9 0 12.5 24.0 31.4 81.7 64.6 218.0
13 03:00 1.5 94 5.05 0.6 7 9 1027.1 0 12.5 24.0 31.4 81.7 64.6 218.0
13 02:50 1.9 94 5.19 1 7 9 1026.9 0 12.8 24.1 31.8 82.8 66.1 223.6
13 02:40 1.7 94 5.12 0.8 7 9 1026.9 0 12.6 24.1 31.6 82.3 65.4 220.8
13 02:30 1.7 94 5.12 0.8 6 7 1027 0 12.6 24.1 31.6 82.3 65.4 220.8
13 02:20 1.7 94 5.12 0.8 7 7 1026.9 0 12.6 24.1 31.6 82.3 65.4 220.8
13 02:10 1.8 93 5.1 0.8 6 7 1027 0 12.6 24.0 31.5 82.0 65.0 219.6
13 02:00 2 94 5.23 1.1 7 9 1027 0 12.8 24.2 32.0 83.2 66.6 225.3
13 01:50 2.1 94 5.26 1.2 6 6 1026.9 0 12.9 24.2 32.0 83.4 66.9 226.4
13 01:40 2.1 93 5.21 1.1 7 7 1026.8 0 12.8 24.1 31.8 82.8 66.2 224.0
13 01:30 2.3 94 5.34 1.4 7 9 1026.9 0 13.1 24.3 32.3 84.1 67.9 229.6
13 01:20 2 93 5.17 1 6 7 1026.7 0 12.7 24.1 31.7 82.5 65.8 222.3
13 01:10 2.1 93 5.21 1.1 0 0 1026.7 0 12.8 24.1 31.8 82.8 66.2 223.9
13 01:00 2.3 93 5.28 1.3 2 7 1026.8 0 12.9 24.2 32.0 83.4 67.0 226.7
13 00:50 2.6 93 5.39 1.6 6 7 1026.7 0 13.2 24.3 32.4 84.3 68.3 231.1
13 00:40 2.7 93 5.42 1.7 7 7 1026.8 0 13.2 24.3 32.5 84.5 68.6 232.3
13 00:30 2.7 93 5.42 1.7 7 9 1026.9 0 13.2 24.3 32.5 84.5 68.6 232.3
13 00:20 2.8 93 5.46 1.8 7 7 1026.9 0 13.3 24.4 32.6 84.9 69.1 233.9
13 00:10 2.8 93 5.46 1.8 11 11 1026.9 0 13.3 24.4 32.6 84.9 69.1 233.9
13 00:00 2.8 93 5.46 1.8 9 9 1027 0 13.3 24.4 32.6 84.9 69.1 234.0
12 23:50 2.8 93 5.46 1.8 9 9 1026.9 0 13.3 24.4 32.6 84.9 69.1 233.9
12 23:40 2.9 93 5.5 1.9 7 9 1026.8 0 13.4 24.4 32.7 85.2 69.5 235.5
12 23:30 3 93 5.53 2 6 7 1026.9 0 13.5 24.4 32.8 85.4 69.8 236.7
12 23:20 3.2 93 5.61 2.2 4 6 1026.7 0 13.6 24.5 33.0 86.1 70.7 239.9
12 23:10 3.3 93 5.65 2.3 6 7 1026.6 0 13.7 24.5 33.2 86.4 71.2 241.5
12 23:00 3.2 92 5.55 2 6 6 1026.7 0 13.5 24.4 32.8 85.4 69.9 237.0
12 22:50 3.3 92 5.59 2.1 6 6 1026.6 0 13.6 24.4 32.9 85.7 70.4 238.6
12 22:40 3.5 92 5.66 2.3 4 6 1026.6 0 13.7 24.5 33.1 86.3 71.1 241.3
12 22:30 3.4 92 5.62 2.2 6 6 1026.7 0 13.6 24.4 33.0 86.0 70.7 239.8
12 22:20 3.4 92 5.62 2.2 6 6 1026.6 0 13.6 24.4 33.0 85.9 70.7 239.7
12 22:10 3.7 92 5.74 2.5 0 0 1026.5 0 13.9 24.6 33.4 86.9 72.0 244.5
12 22:00 3.8 92 5.78 2.6 6 7 1026.6 0 14.0 24.6 33.5 87.3 72.5 246.2
12 21:50 3.8 91 5.71 2.5 7 9 1026.5 0 13.8 24.5 33.2 86.5 71.5 242.8
12 21:40 4.3 91 5.91 3 9 9 1026.5 0 14.2 24.7 33.8 88.1 73.8 250.8
12 21:30 4.3 91 5.91 3 0 7 1026.6 0 14.2 24.7 33.8 88.2 73.8 250.8
12 21:20 4.4 91 5.95 3.1 0 0 1026.5 0 14.3 24.7 33.9 88.5 74.2 252.4
12 21:10 4.4 91 5.95 3.1 0 0 1026.3 0 14.3 24.7 33.9 88.5 74.2 252.4
12 21:00 4.5 90 5.92 3 0 0 1026.3 0 14.2 24.6 33.8 88.0 73.7 250.6
12 20:50 4.6 90 5.96 3.1 0 0 1026.2 0 14.3 24.7 33.9 88.3 74.2 252.2
12 20:40 4.8 90 6.04 3.3 0 0 1026 0 14.5 24.7 34.1 89.0 75.1 255.3
12 20:30 5 89 6.05 3.3 0 0 1026.1 0 14.5 24.7 34.1 88.9 75.0 255.2
12 20:20 5.4 89 6.21 3.7 0 0 1025.9 0 14.8 24.8 34.5 90.1 76.8 261.4
12 20:10 5.6 89 6.3 3.9 0 0 1025.9 0 15.0 24.9 34.8 90.9 77.8 265.1
12 20:00 5.6 89 6.3 3.9 0 4 1025.8 0 15.0 24.9 34.8 90.9 77.8 265.0
12 19:50 5.8 88 6.31 4 2 6 1025.6 0 15.0 24.9 34.8 90.8 77.7 264.8
12 19:40 5.9 88 6.35 4.1 6 6 1025.5 0 15.1 24.9 34.9 91.1 78.2 266.3
12 19:30 6.2 87 6.4 4.2 0 6 1025.5 0 15.2 24.9 35.0 91.3 78.5 267.7
12 19:20 6.7 87 6.61 4.7 4 6 1025.3 0 15.6 25.1 35.6 93.0 80.9 275.9
12 19:10 7.1 86 6.71 4.9 6 6 1025.3 0 15.8 25.2 35.8 93.6 81.8 279.3
12 19:00 7.4 86 6.84 5.2 6 7 1025.3 0 16.1 25.3 36.2 94.7 83.2 284.4
12 18:50 7.7 85 6.9 5.3 6 6 1025.1 0 16.2 25.3 36.3 94.9 83.7 286.1
12 18:40 8.4 83 7.04 5.7 6 7 1025.1 0 16.5 25.3 36.6 95.6 84.9 290.2
12 18:30 8.7 81 7.01 5.6 0 0 1025.1 0 16.4 25.2 36.3 94.9 84.1 287.7
12 18:20 9.2 80 7.15 5.9 0 0 1024.9 0 16.7 25.3 36.7 95.8 85.4 292.4
12 18:10 9.6 77 7.06 5.8 0 0 1025 0 16.5 25.0 36.1 94.4 83.8 286.7
12 18:00 10.6 75 7.32 6.4 0 0 1025 0 17.0 25.2 36.7 96.0 86.2 295.1
12 17:50 11.6 73 7.59 6.9 0 0 1024.7 0 17.5 25.3 37.3 97.6 88.6 303.7
12 17:40 12.2 70 7.55 6.9 6 6 1024.6 0 17.4 25.1 36.9 96.5 87.4 299.6
12 17:30 12.5 68 7.48 6.8 7 9 1024.6 0 17.2 24.9 36.5 95.3 86.1 295.3
12 17:20 13 65 7.37 6.6 7 9 1024.4 0 17.0 24.6 35.8 93.6 84.2 288.4
12 17:10 13.6 61 7.18 6.2 9 9 1024.4 0 16.6 24.1 34.8 90.9 81.1 277.8
12 17:00 14.1 58 7.04 6 9 13 1024.4 0 16.2 23.8 34.0 88.9 78.8 269.9
12 16:50 14.6 54 6.76 5.4 11 11 1024.2 0 15.6 23.2 32.8 85.6 74.9 256.0
12 16:40 15.3 55 7.18 6.3 13 13 1024 0 16.5 23.7 34.1 89.0 79.4 271.8
12 16:30 15.5 56 7.4 6.8 11 13 1024 0 17.0 23.9 34.8 91.0 81.9 280.7
12 16:20 14.8 60 7.6 7.1 9 11 1023.8 0 17.4 24.4 35.9 93.8 85.1 292.0
12 16:10 14.2 60 7.33 6.6 9 9 1023.7 0 16.9 24.2 35.1 91.7 82.3 282.1
12 16:00 15 56 7.18 6.3 11 15 1023.8 0 16.5 23.7 34.2 89.3 79.6 272.8
12 15:50 14.6 59 7.38 6.7 7 9 1023.6 0 16.9 24.1 35.1 91.7 82.5 282.9
12 15:40 14.9 54 6.88 5.7 7 9 1023.6 0 15.9 23.3 33.1 86.4 76.0 260.1
12 15:30 15.1 53 6.84 5.6 13 15 1023.6 0 15.8 23.2 32.9 85.8 75.3 257.7
12 15:20 15.6 52 6.92 5.8 11 13 1023.5 0 15.9 23.2 32.9 86.0 75.8 259.5
12 15:10 15.8 51 6.86 5.7 13 15 1023.4 0 15.8 23.0 32.6 85.2 74.9 256.3
12 15:00 16 52 7.08 6.2 11 17 1023.5 0 16.3 23.3 33.4 87.2 77.4 265.1
12 14:50 15.6 52 6.92 5.8 13 15 1023.4 0 15.9 23.2 32.9 86.0 75.8 259.5
12 14:40 15.3 53 6.92 5.8 11 15 1023.5 0 15.9 23.2 33.1 86.3 76.1 260.5

Last Refresh: 13-Jul-2020 07:34:38

Most of the information presented on this site is sourced from the Bureau of Meteorology.  Copyright in all material sourced from the Bureau of Meteorology resides with the Commonwealth of Australia.